createdAt,value
2022-08-22T00:00:06.813Z,16.86
2022-08-22T00:01:08.016Z,16.73
2022-08-22T00:02:08.994Z,16.68
2022-08-22T00:02:48.150Z,19.42
2022-08-22T00:02:48.679Z,18.57
2022-08-22T00:02:49.791Z,17.82
2022-08-22T00:02:53.826Z,18.37
2022-08-22T00:02:55.897Z,17.84
2022-08-22T00:03:00.025Z,17.95
2022-08-22T00:03:02.037Z,18.22
2022-08-22T00:03:04.340Z,17.87
2022-08-22T00:03:07.041Z,16.93
2022-08-22T00:03:22.761Z,16.73
2022-08-22T00:04:09.896Z,16.73
2022-08-22T00:05:07.735Z,16.59
2022-08-22T00:06:08.389Z,16.70
2022-08-22T00:07:08.036Z,16.65
2022-08-22T00:08:08.167Z,16.67
2022-08-22T00:09:08.416Z,16.59
2022-08-22T00:10:08.901Z,16.62
2022-08-22T00:11:08.649Z,16.58
2022-08-22T00:12:08.808Z,16.62
2022-08-22T00:13:08.966Z,16.50
2022-08-22T00:14:09.887Z,16.58
2022-08-22T00:15:16.368Z,16.53
2022-08-22T00:16:10.395Z,16.45
2022-08-22T00:17:09.542Z,16.48
2022-08-22T00:18:10.392Z,16.41
2022-08-22T00:19:43.313Z,16.53
2022-08-22T00:20:10.444Z,16.44
2022-08-22T00:21:10.926Z,16.45
2022-08-22T00:22:10.465Z,16.42
2022-08-22T00:23:10.616Z,16.40
2022-08-22T00:24:11.436Z,16.40
2022-08-22T00:25:25.431Z,16.37
2022-08-22T00:26:12.175Z,16.41
2022-08-22T00:27:11.315Z,16.40
2022-08-22T00:28:11.506Z,16.35
2022-08-22T00:29:12.431Z,16.27
2022-08-22T00:30:11.807Z,16.35
2022-08-22T00:31:12.962Z,16.40
2022-08-22T00:32:12.196Z,16.34
2022-08-22T00:33:12.354Z,16.31
2022-08-22T00:34:13.436Z,16.27
2022-08-22T00:35:12.699Z,16.30
2022-08-22T00:36:12.863Z,16.26
2022-08-22T00:37:13.017Z,16.31
2022-08-22T00:38:13.181Z,16.40
2022-08-22T00:39:13.342Z,16.33
2022-08-22T00:40:13.566Z,16.22
2022-08-22T00:41:13.680Z,16.23
2022-08-22T00:42:13.838Z,16.26
2022-08-22T00:43:14.941Z,16.22
2022-08-22T00:44:14.197Z,16.25
2022-08-22T00:45:14.361Z,16.11
2022-08-22T00:46:15.438Z,16.04
2022-08-22T00:47:14.687Z,16.06
2022-08-22T00:48:14.842Z,16.01
2022-08-22T00:49:47.900Z,16.01
2022-08-22T00:50:15.136Z,16.07
2022-08-22T00:51:15.279Z,16.00
2022-08-22T00:52:15.437Z,15.97
2022-08-22T00:53:15.628Z,16.03
2022-08-22T00:54:17.619Z,16.07
2022-08-22T00:55:52.404Z,15.99
2022-08-22T00:56:16.201Z,15.99
2022-08-22T00:57:16.349Z,16.00
2022-08-22T00:58:16.498Z,16.07
2022-08-22T00:59:23.268Z,15.94
2022-08-22T01:00:17.786Z,16.04
2022-08-22T01:01:17.093Z,15.94
2022-08-22T01:02:18.009Z,15.94
2022-08-22T01:03:18.038Z,15.92
2022-08-22T01:04:17.425Z,15.97
2022-08-22T01:05:18.529Z,15.88
2022-08-22T01:06:17.811Z,15.92
2022-08-22T01:07:18.520Z,15.94
2022-08-22T01:08:19.013Z,15.84
2022-08-22T01:09:18.282Z,15.93
2022-08-22T01:10:18.418Z,15.89
2022-08-22T01:11:18.583Z,15.86
2022-08-22T01:12:18.768Z,15.84
2022-08-22T01:13:19.519Z,15.84
2022-08-22T01:14:19.148Z,15.81
2022-08-22T01:15:19.332Z,15.94
2022-08-22T01:16:20.016Z,15.79
2022-08-22T01:17:19.655Z,15.75
2022-08-22T01:18:19.793Z,15.74
2022-08-22T01:19:20.515Z,15.79
2022-08-22T01:20:20.169Z,15.68
2022-08-22T01:21:24.091Z,15.68
2022-08-22T01:22:20.478Z,15.67
2022-08-22T01:23:20.629Z,15.68
2022-08-22T01:24:21.518Z,15.54
2022-08-22T01:25:25.861Z,15.61
2022-08-22T01:26:22.147Z,15.54
2022-08-22T01:27:21.333Z,15.61
2022-08-22T01:28:22.851Z,15.59
2022-08-22T01:29:28.198Z,15.57
2022-08-22T01:30:23.903Z,15.43
2022-08-22T01:31:22.009Z,15.52
2022-08-22T01:32:23.019Z,15.48
2022-08-22T01:33:22.366Z,15.45
2022-08-22T01:34:23.019Z,15.52
2022-08-22T01:35:22.653Z,15.56
2022-08-22T01:36:22.793Z,15.49
2022-08-22T01:37:22.919Z,15.54
2022-08-22T01:38:23.057Z,15.52
2022-08-22T01:39:23.234Z,15.48
2022-08-22T01:40:23.878Z,15.51
2022-08-22T01:41:24.524Z,15.41
2022-08-22T01:42:24.535Z,15.41
2022-08-22T01:43:58.677Z,15.39
2022-08-22T01:44:25.150Z,15.35
2022-08-22T01:45:24.241Z,15.28
2022-08-22T01:46:25.028Z,15.36
2022-08-22T01:47:24.566Z,15.30
2022-08-22T01:48:24.704Z,15.36
2022-08-22T01:49:25.524Z,15.38
2022-08-22T01:50:58.950Z,15.27
2022-08-22T01:51:25.187Z,15.41
2022-08-22T01:52:25.336Z,15.33
2022-08-22T01:53:25.467Z,15.28
2022-08-22T01:54:26.563Z,15.39
2022-08-22T01:55:26.068Z,15.43
2022-08-22T01:56:25.980Z,15.36
2022-08-22T01:57:26.168Z,15.43
2022-08-22T01:58:26.332Z,15.33
2022-08-22T01:59:33.692Z,15.42
2022-08-22T02:00:34.743Z,15.30
2022-08-22T02:01:28.708Z,15.33
2022-08-22T02:02:26.984Z,15.24
2022-08-22T02:03:27.102Z,15.27
2022-08-22T02:04:27.261Z,15.27
2022-08-22T02:05:28.078Z,15.26
2022-08-22T02:06:27.562Z,15.30
2022-08-22T02:07:31.925Z,15.26
2022-08-22T02:08:28.556Z,15.24
2022-08-22T02:09:28.569Z,15.19
2022-08-22T02:10:28.336Z,15.21
2022-08-22T02:11:29.061Z,15.21
2022-08-22T02:12:28.686Z,15.20
2022-08-22T02:13:28.819Z,15.23
2022-08-22T02:14:29.054Z,15.24
2022-08-22T02:15:29.218Z,15.13
2022-08-22T02:16:30.062Z,15.13
2022-08-22T02:17:29.578Z,15.17
2022-08-22T02:18:29.722Z,15.19
2022-08-22T02:19:29.874Z,15.17
2022-08-22T02:20:30.582Z,15.17
2022-08-22T02:21:31.065Z,15.11
2022-08-22T02:22:30.452Z,15.09
2022-08-22T02:23:30.591Z,15.05
2022-08-22T02:24:30.750Z,14.99
2022-08-22T02:25:30.907Z,15.11
2022-08-22T02:26:31.568Z,15.08
2022-08-22T02:27:31.733Z,15.13
2022-08-22T02:28:31.408Z,15.02
2022-08-22T02:29:31.561Z,15.08
2022-08-22T02:30:31.726Z,14.99
2022-08-22T02:31:31.862Z,15.09
2022-08-22T02:32:32.027Z,14.99
2022-08-22T02:33:32.158Z,15.11
2022-08-22T02:34:32.286Z,14.98
2022-08-22T02:35:32.430Z,15.09
2022-08-22T02:36:32.567Z,15.09
2022-08-22T02:37:32.722Z,15.06
2022-08-22T02:38:33.566Z,15.13
2022-08-22T02:39:33.057Z,15.12
2022-08-22T02:40:33.196Z,15.12
2022-08-22T02:41:33.579Z,15.02
2022-08-22T02:42:33.472Z,15.02
2022-08-22T02:43:33.601Z,14.99
2022-08-22T02:44:34.571Z,15.01
2022-08-22T02:45:34.569Z,14.95
2022-08-22T02:46:34.080Z,14.94
2022-08-22T02:47:34.236Z,14.84
2022-08-22T02:48:35.071Z,14.95
2022-08-22T02:49:34.551Z,15.03
2022-08-22T02:50:35.783Z,14.99
2022-08-22T02:52:08.426Z,14.99
2022-08-22T02:52:35.144Z,15.03
2022-08-22T02:53:36.303Z,14.98
2022-08-22T02:54:35.431Z,15.06
2022-08-22T02:55:35.570Z,15.08
2022-08-22T02:56:36.115Z,15.11
2022-08-22T02:57:39.613Z,15.09
2022-08-22T02:58:36.006Z,15.23
2022-08-22T02:59:36.150Z,15.06
2022-08-22T03:00:36.306Z,15.11
2022-08-22T03:01:36.624Z,15.13
2022-08-22T03:02:37.613Z,15.06
2022-08-22T03:03:36.845Z,14.99
2022-08-22T03:04:36.986Z,14.98
2022-08-22T03:05:37.120Z,14.98
2022-08-22T03:06:37.618Z,14.95
2022-08-22T03:07:37.473Z,14.98
2022-08-22T03:08:47.348Z,14.94
2022-08-22T03:09:38.968Z,14.88
2022-08-22T03:10:38.609Z,14.93
2022-08-22T03:11:38.254Z,14.91
2022-08-22T03:12:38.430Z,15.02
2022-08-22T03:13:38.567Z,15.05
2022-08-22T03:14:38.735Z,15.03
2022-08-22T03:15:38.870Z,15.03
2022-08-22T03:16:39.617Z,14.94
2022-08-22T03:17:39.237Z,15.02
2022-08-22T03:18:39.383Z,14.99
2022-08-22T03:19:40.606Z,15.01
2022-08-22T03:20:41.131Z,14.95
2022-08-22T03:21:39.973Z,14.94
2022-08-22T03:22:41.114Z,14.98
2022-08-22T03:23:40.397Z,14.90
2022-08-22T03:24:40.624Z,14.88
2022-08-22T03:25:40.753Z,14.91
2022-08-22T03:26:40.920Z,14.90
2022-08-22T03:27:41.045Z,14.83
2022-08-22T03:28:59.227Z,14.99
2022-08-22T03:29:42.376Z,14.94
2022-08-22T03:30:41.628Z,14.87
2022-08-22T03:31:42.620Z,14.94
2022-08-22T03:32:41.958Z,14.83
2022-08-22T03:33:42.194Z,14.72
2022-08-22T03:34:42.464Z,14.74
2022-08-22T03:35:42.626Z,14.72
2022-08-22T03:36:42.742Z,14.81
2022-08-22T03:37:42.976Z,14.75
2022-08-22T03:38:43.617Z,14.75
2022-08-22T03:39:44.163Z,14.81
2022-08-22T03:40:43.473Z,14.84
2022-08-22T03:41:44.127Z,14.83
2022-08-22T03:42:44.618Z,14.84
2022-08-22T03:43:44.623Z,14.86
2022-08-22T03:44:45.127Z,14.75
2022-08-22T03:45:44.267Z,14.72
2022-08-22T03:46:44.455Z,14.71
2022-08-22T03:47:44.607Z,14.72
2022-08-22T03:48:44.751Z,14.68
2022-08-22T03:49:44.886Z,14.75
2022-08-22T03:50:45.048Z,14.71
2022-08-22T03:51:45.242Z,14.68
2022-08-22T03:53:18.999Z,14.71
2022-08-22T03:53:45.497Z,14.68
2022-08-22T03:54:45.633Z,14.61
2022-08-22T03:55:45.798Z,14.60
2022-08-22T03:56:45.947Z,14.52
2022-08-22T03:57:46.189Z,14.54
2022-08-22T03:58:46.356Z,14.53
2022-08-22T03:59:46.495Z,14.53
2022-08-22T04:00:46.726Z,14.57
2022-08-22T04:01:47.902Z,14.53
2022-08-22T04:02:47.667Z,14.50
2022-08-22T04:03:47.186Z,14.64
2022-08-22T04:04:47.675Z,14.53
2022-08-22T04:05:47.549Z,14.53
2022-08-22T04:06:48.672Z,14.50
2022-08-22T04:07:47.826Z,14.32
2022-08-22T04:08:48.003Z,14.39
2022-08-22T04:09:48.150Z,14.37
2022-08-22T04:10:49.164Z,14.32
2022-08-22T04:11:48.527Z,14.28
2022-08-22T04:12:48.692Z,14.20
2022-08-22T04:13:48.840Z,14.25
2022-08-22T04:14:48.986Z,14.34
2022-08-22T04:15:49.144Z,14.20
2022-08-22T04:16:49.283Z,14.25
2022-08-22T04:17:49.467Z,14.35
2022-08-22T04:18:49.630Z,14.37
2022-08-22T04:19:49.807Z,14.31
2022-08-22T04:20:49.942Z,14.31
2022-08-22T04:21:50.083Z,14.16
2022-08-22T04:23:23.650Z,14.21
2022-08-22T04:23:50.364Z,14.21
2022-08-22T04:24:52.200Z,14.21
2022-08-22T04:25:50.708Z,14.19
2022-08-22T04:26:50.836Z,14.21
2022-08-22T04:27:50.998Z,14.31
2022-08-22T04:28:51.207Z,14.24
2022-08-22T04:29:51.381Z,14.32
2022-08-22T04:30:51.722Z,14.32
2022-08-22T04:31:51.732Z,14.43
2022-08-22T04:32:51.884Z,14.38
2022-08-22T04:33:52.711Z,14.38
2022-08-22T04:34:52.200Z,14.34
2022-08-22T04:35:52.719Z,14.44
2022-08-22T04:36:52.482Z,14.42
2022-08-22T04:37:52.700Z,14.35
2022-08-22T04:38:52.777Z,14.37
2022-08-22T04:39:52.994Z,14.38
2022-08-22T04:40:53.066Z,14.38
2022-08-22T04:41:53.212Z,14.43
2022-08-22T04:42:53.364Z,14.46
2022-08-22T04:43:53.535Z,14.49
2022-08-22T04:44:53.675Z,14.43
2022-08-22T04:45:53.872Z,14.50
2022-08-22T04:46:54.028Z,14.52
2022-08-22T04:47:54.436Z,14.54
2022-08-22T04:48:54.393Z,14.44
2022-08-22T04:49:54.578Z,14.52
2022-08-22T04:50:54.761Z,14.52
2022-08-22T04:51:56.722Z,14.49
2022-08-22T04:52:55.715Z,14.47
2022-08-22T04:54:28.163Z,14.47
2022-08-22T04:54:56.250Z,14.46
2022-08-22T04:55:55.776Z,14.52
2022-08-22T04:56:56.751Z,14.53
2022-08-22T04:57:56.753Z,14.50
2022-08-22T04:58:56.759Z,14.44
2022-08-22T04:59:56.269Z,14.53
2022-08-22T05:00:56.381Z,14.43
2022-08-22T05:01:56.591Z,14.52
2022-08-22T05:02:57.627Z,14.57
2022-08-22T05:03:56.850Z,14.57
2022-08-22T05:04:57.753Z,14.67
2022-08-22T05:05:57.747Z,14.57
2022-08-22T05:06:58.765Z,14.57
2022-08-22T05:07:57.526Z,14.67
2022-08-22T05:08:57.731Z,14.52
2022-08-22T05:09:57.845Z,14.61
2022-08-22T05:10:58.775Z,14.65
2022-08-22T05:11:58.280Z,14.54
2022-08-22T05:12:58.428Z,14.60
2022-08-22T05:13:58.564Z,14.67
2022-08-22T05:14:58.709Z,14.68
2022-08-22T05:15:58.921Z,14.68
2022-08-22T05:16:59.759Z,14.83
2022-08-22T05:17:59.479Z,14.84
2022-08-22T05:18:59.438Z,14.88
2022-08-22T05:19:59.771Z,14.87
2022-08-22T05:20:59.818Z,14.90
2022-08-22T05:21:59.978Z,14.95
2022-08-22T05:23:00.122Z,14.91
2022-08-22T05:24:01.246Z,14.94
2022-08-22T05:25:01.485Z,15.02
2022-08-22T05:26:00.771Z,15.12
2022-08-22T05:27:01.301Z,15.12
2022-08-22T05:28:01.287Z,15.15
2022-08-22T05:29:01.194Z,15.20
2022-08-22T05:30:03.254Z,15.27
2022-08-22T05:31:02.784Z,15.36
2022-08-22T05:32:01.640Z,15.38
2022-08-22T05:33:01.822Z,15.41
2022-08-22T05:34:01.967Z,15.43
2022-08-22T05:35:02.757Z,15.41
2022-08-22T05:36:02.255Z,15.48
2022-08-22T05:37:03.393Z,15.51
2022-08-22T05:38:02.611Z,15.60
2022-08-22T05:39:02.769Z,15.57
2022-08-22T05:40:02.930Z,15.59
2022-08-22T05:41:03.079Z,15.57
2022-08-22T05:42:03.761Z,15.57
2022-08-22T05:43:03.418Z,15.67
2022-08-22T05:44:04.268Z,15.59
2022-08-22T05:45:03.749Z,15.72
2022-08-22T05:46:03.882Z,15.82
2022-08-22T05:47:04.016Z,15.81
2022-08-22T05:48:04.282Z,15.93
2022-08-22T05:49:04.295Z,15.94
2022-08-22T05:50:05.270Z,16.04
2022-08-22T05:51:05.271Z,15.99
2022-08-22T05:52:04.882Z,16.12
2022-08-22T05:53:05.147Z,16.22
2022-08-22T05:54:05.288Z,16.30
2022-08-22T05:55:05.468Z,16.40
2022-08-22T05:56:05.627Z,16.45
2022-08-22T05:57:07.903Z,16.49
2022-08-22T05:58:07.785Z,16.53
2022-08-22T05:59:08.590Z,16.58
2022-08-22T06:00:06.282Z,16.65
2022-08-22T06:01:07.267Z,16.68
2022-08-22T06:02:07.719Z,16.90
2022-08-22T06:03:06.809Z,17.07
2022-08-22T06:04:07.773Z,17.23
2022-08-22T06:05:11.763Z,17.44
2022-08-22T06:06:08.384Z,17.62
2022-08-22T06:07:07.778Z,17.87
2022-08-22T06:08:07.692Z,18.00
2022-08-22T06:09:07.851Z,18.07
2022-08-22T06:10:08.028Z,18.21
2022-08-22T06:11:08.772Z,18.27
2022-08-22T06:12:11.619Z,18.22
2022-08-22T06:13:11.427Z,18.10
2022-08-22T06:14:08.832Z,18.13
2022-08-22T06:15:11.839Z,17.99
2022-08-22T06:16:09.260Z,17.99
2022-08-22T06:17:10.276Z,17.91
2022-08-22T06:18:09.537Z,17.79
2022-08-22T06:19:19.091Z,17.87
2022-08-22T06:20:11.284Z,17.76
2022-08-22T06:21:10.141Z,17.70
2022-08-22T06:22:10.286Z,17.67
2022-08-22T06:23:10.470Z,17.70
2022-08-22T06:24:11.277Z,17.79
2022-08-22T06:25:43.714Z,17.87
2022-08-22T06:26:20.489Z,17.91
2022-08-22T06:27:12.191Z,17.89
2022-08-22T06:28:12.304Z,17.94
2022-08-22T06:29:11.536Z,18.13
2022-08-22T06:30:11.655Z,18.12
2022-08-22T06:31:12.943Z,18.13
2022-08-22T06:32:12.065Z,18.18
2022-08-22T06:33:12.587Z,18.25
2022-08-22T06:34:12.330Z,18.17
2022-08-22T06:35:12.504Z,18.22
2022-08-22T06:36:12.674Z,18.07
2022-08-22T06:37:12.829Z,18.02
2022-08-22T06:38:12.970Z,18.00
2022-08-22T06:39:13.126Z,18.03
2022-08-22T06:40:13.339Z,17.89
2022-08-22T06:41:13.823Z,18.00
2022-08-22T06:42:16.703Z,18.07
2022-08-22T06:43:14.836Z,18.04
2022-08-22T06:44:14.918Z,17.89
2022-08-22T06:45:14.171Z,17.87
2022-08-22T06:46:14.367Z,17.94
2022-08-22T06:47:14.864Z,17.95
2022-08-22T06:48:15.313Z,18.00
2022-08-22T06:49:14.821Z,18.03
2022-08-22T06:50:14.984Z,18.02
2022-08-22T06:51:15.334Z,18.21
2022-08-22T06:52:15.824Z,18.29
2022-08-22T06:53:16.317Z,18.33
2022-08-22T06:54:16.321Z,18.36
2022-08-22T06:55:15.838Z,18.50
2022-08-22T06:56:16.822Z,18.59
2022-08-22T06:57:16.227Z,18.70
2022-08-22T06:58:17.317Z,18.73
2022-08-22T06:59:16.559Z,18.76
2022-08-22T07:00:17.316Z,18.73
2022-08-22T07:01:16.922Z,18.74
2022-08-22T07:02:17.122Z,18.77
2022-08-22T07:03:17.835Z,18.76
2022-08-22T07:04:17.482Z,18.72
2022-08-22T07:05:17.660Z,18.80
2022-08-22T07:06:17.809Z,19.06
2022-08-22T07:07:17.957Z,19.08
2022-08-22T07:08:18.107Z,19.17
2022-08-22T07:09:18.328Z,19.21
2022-08-22T07:10:18.483Z,19.32
2022-08-22T07:11:18.609Z,19.54
2022-08-22T07:12:18.758Z,19.65
2022-08-22T07:13:19.828Z,19.60
2022-08-22T07:14:19.336Z,19.68
2022-08-22T07:15:19.222Z,19.76
2022-08-22T07:16:19.374Z,19.84
2022-08-22T07:17:19.553Z,19.93
2022-08-22T07:18:19.726Z,19.88
2022-08-22T07:19:19.908Z,20.08
2022-08-22T07:20:20.090Z,20.03
2022-08-22T07:21:20.231Z,20.12
2022-08-22T07:22:20.461Z,20.09
2022-08-22T07:23:20.626Z,19.93
2022-08-22T07:24:21.327Z,20.10
2022-08-22T07:25:20.968Z,20.18
2022-08-22T07:26:21.124Z,20.18
2022-08-22T07:27:21.317Z,20.09
2022-08-22T07:28:21.473Z,20.18
2022-08-22T07:29:23.351Z,20.15
2022-08-22T07:30:27.820Z,20.20
2022-08-22T07:31:22.955Z,20.20
2022-08-22T07:32:22.214Z,20.38
2022-08-22T07:33:26.820Z,20.54
2022-08-22T07:34:22.606Z,20.64
2022-08-22T07:35:22.774Z,20.74
2022-08-22T07:36:23.285Z,20.68
2022-08-22T07:37:24.120Z,20.74
2022-08-22T07:38:23.306Z,20.89
2022-08-22T07:39:23.451Z,20.91
2022-08-22T07:40:23.645Z,20.93
2022-08-22T07:41:24.328Z,21.05
2022-08-22T07:42:27.466Z,21.16
2022-08-22T07:43:24.182Z,21.23
2022-08-22T07:44:24.354Z,21.30
2022-08-22T07:45:25.333Z,21.45
2022-08-22T07:46:24.715Z,21.83
2022-08-22T07:47:26.147Z,22.39
2022-08-22T07:48:26.588Z,22.71
2022-08-22T07:49:26.227Z,22.78
2022-08-22T07:50:25.464Z,22.90
2022-08-22T07:51:25.649Z,23.04
2022-08-22T07:52:25.784Z,23.29
2022-08-22T07:53:25.930Z,23.38
2022-08-22T07:54:27.083Z,23.24
2022-08-22T07:55:26.839Z,23.24
2022-08-22T07:56:27.337Z,23.19
2022-08-22T07:57:26.737Z,22.89
2022-08-22T07:58:26.886Z,22.57
2022-08-22T07:59:27.080Z,22.32
2022-08-22T08:00:27.840Z,22.19
2022-08-22T08:01:27.537Z,22.01
2022-08-22T08:02:28.346Z,22.09
2022-08-22T08:03:28.339Z,22.07
2022-08-22T08:04:28.010Z,22.01
2022-08-22T08:05:28.347Z,22.01
2022-08-22T08:06:28.351Z,21.99
2022-08-22T08:07:28.844Z,22.06
2022-08-22T08:08:30.342Z,22.13
2022-08-22T08:09:28.987Z,22.31
2022-08-22T08:10:29.140Z,22.56
2022-08-22T08:11:29.252Z,22.64
2022-08-22T08:12:29.861Z,22.56
2022-08-22T08:13:29.617Z,22.52
2022-08-22T08:14:29.754Z,22.43
2022-08-22T08:15:30.853Z,22.53
2022-08-22T08:16:30.256Z,22.60
2022-08-22T08:17:32.394Z,22.78
2022-08-22T08:18:32.357Z,22.94
2022-08-22T08:19:31.357Z,23.11
2022-08-22T08:20:30.829Z,23.53
2022-08-22T08:21:31.100Z,23.82
2022-08-22T08:22:31.221Z,23.89
2022-08-22T08:23:31.340Z,24.04
2022-08-22T08:24:40.036Z,24.08
2022-08-22T08:25:32.698Z,24.07
2022-08-22T08:26:31.945Z,24.08
2022-08-22T08:28:05.521Z,24.04
2022-08-22T08:28:32.252Z,24.10
2022-08-22T08:29:32.366Z,23.82
2022-08-22T08:30:32.504Z,23.64
2022-08-22T08:31:32.899Z,23.57
2022-08-22T08:32:32.901Z,23.55
2022-08-22T08:33:33.032Z,23.58
2022-08-22T08:34:34.720Z,23.64
2022-08-22T08:35:42.168Z,23.43
2022-08-22T08:36:34.520Z,23.19
2022-08-22T08:37:33.635Z,23.29
2022-08-22T08:38:33.910Z,23.09
2022-08-22T08:39:35.276Z,23.27
2022-08-22T08:40:35.110Z,23.39
2022-08-22T08:41:34.351Z,23.43
2022-08-22T08:42:34.481Z,23.42
2022-08-22T08:43:34.634Z,23.40
2022-08-22T08:44:34.801Z,23.32
2022-08-22T08:45:34.937Z,23.22
2022-08-22T08:46:35.078Z,23.23
2022-08-22T08:47:35.305Z,23.34
2022-08-22T08:48:35.435Z,23.24
2022-08-22T08:49:35.570Z,23.07
2022-08-22T08:50:36.395Z,23.17
2022-08-22T08:51:36.903Z,23.09
2022-08-22T08:52:36.273Z,23.12
2022-08-22T08:53:36.416Z,23.07
2022-08-22T08:54:36.565Z,23.12
2022-08-22T08:55:37.406Z,23.05
2022-08-22T08:56:36.890Z,23.07
2022-08-22T08:58:10.467Z,22.93
2022-08-22T08:58:38.092Z,23.08
2022-08-22T09:00:39.445Z,23.23
2022-08-22T09:01:37.993Z,23.34
2022-08-22T09:02:40.506Z,23.53
2022-08-22T09:03:38.298Z,23.55
2022-08-22T09:04:38.399Z,23.47
2022-08-22T09:05:39.441Z,23.40
2022-08-22T09:06:38.780Z,23.34
2022-08-22T09:07:38.927Z,23.20
2022-08-22T09:08:39.170Z,23.26
2022-08-22T09:09:39.938Z,23.34
2022-08-22T09:10:39.518Z,23.32
2022-08-22T09:11:39.649Z,23.32
2022-08-22T09:12:52.258Z,23.43
2022-08-22T09:13:41.093Z,23.71
2022-08-22T09:14:40.388Z,23.75
2022-08-22T09:15:40.505Z,23.70
2022-08-22T09:16:46.205Z,23.68
2022-08-22T09:17:42.443Z,23.75
2022-08-22T09:18:41.077Z,23.80
2022-08-22T09:19:41.221Z,23.86
2022-08-22T09:20:41.348Z,23.87
2022-08-22T09:21:41.488Z,23.90
2022-08-22T09:22:49.849Z,23.98
2022-08-22T09:23:43.471Z,23.98
2022-08-22T09:24:41.958Z,24.08
2022-08-22T09:25:42.952Z,24.07
2022-08-22T09:26:42.356Z,24.05
2022-08-22T09:27:42.962Z,24.08
2022-08-22T09:28:42.706Z,24.12
2022-08-22T09:29:51.442Z,24.14
2022-08-22T09:30:44.948Z,24.12
2022-08-22T09:31:51.947Z,24.24
2022-08-22T09:32:44.490Z,24.29
2022-08-22T09:33:44.448Z,24.19
2022-08-22T09:34:43.965Z,24.23
2022-08-22T09:35:44.019Z,24.45
2022-08-22T09:36:44.165Z,24.45
2022-08-22T09:37:44.953Z,24.53
2022-08-22T09:38:47.965Z,24.60
2022-08-22T09:39:44.734Z,24.67
2022-08-22T09:40:44.963Z,24.73
2022-08-22T09:41:45.471Z,24.57
2022-08-22T09:42:46.436Z,24.77
2022-08-22T09:43:48.724Z,24.79
2022-08-22T09:44:45.507Z,24.82
2022-08-22T09:45:47.120Z,25.02
2022-08-22T09:46:45.895Z,25.01
2022-08-22T09:47:46.954Z,25.06
2022-08-22T09:48:46.209Z,24.95
2022-08-22T09:49:46.962Z,25.00
2022-08-22T09:50:46.562Z,25.01
2022-08-22T09:51:47.460Z,24.75
2022-08-22T09:52:47.455Z,24.79
2022-08-22T09:53:46.984Z,24.75
2022-08-22T09:54:47.103Z,24.75
2022-08-22T09:55:47.473Z,24.80
2022-08-22T09:56:47.487Z,24.98
2022-08-22T09:57:47.667Z,24.95
2022-08-22T09:59:22.311Z,25.01
2022-08-22T09:59:48.994Z,24.91
2022-08-22T10:00:54.736Z,24.83
2022-08-22T10:01:49.993Z,24.77
2022-08-22T10:02:53.711Z,24.77
2022-08-22T10:03:49.751Z,24.64
2022-08-22T10:04:49.494Z,24.59
2022-08-22T10:05:49.146Z,24.75
2022-08-22T10:06:49.303Z,24.68
2022-08-22T10:07:52.753Z,24.77
2022-08-22T10:08:49.604Z,24.82
2022-08-22T10:09:49.742Z,24.90
2022-08-22T10:10:51.005Z,24.95
2022-08-22T10:11:50.130Z,25.09
2022-08-22T10:12:50.999Z,25.13
2022-08-22T10:13:56.620Z,25.20
2022-08-22T10:14:51.618Z,25.20
2022-08-22T10:15:51.009Z,25.42
2022-08-22T10:16:51.056Z,25.50
2022-08-22T10:17:51.228Z,25.39
2022-08-22T10:18:52.819Z,25.42
2022-08-22T10:19:52.502Z,25.24
2022-08-22T10:20:51.743Z,25.22
2022-08-22T10:21:51.982Z,25.24
2022-08-22T10:22:52.127Z,25.35
2022-08-22T10:23:52.287Z,25.39
2022-08-22T10:24:52.420Z,25.46
2022-08-22T10:25:52.562Z,25.53
2022-08-22T10:26:53.010Z,25.35
2022-08-22T10:27:52.907Z,25.43
2022-08-22T10:29:26.498Z,25.39
2022-08-22T10:29:54.042Z,25.38
2022-08-22T10:30:54.045Z,25.27
2022-08-22T10:31:59.039Z,25.25
2022-08-22T10:32:54.676Z,25.38
2022-08-22T10:33:53.803Z,25.50
2022-08-22T10:34:53.992Z,25.34
2022-08-22T10:35:55.046Z,25.50
2022-08-22T10:36:54.572Z,25.56
2022-08-22T10:37:54.551Z,25.71
2022-08-22T10:38:54.713Z,25.79
2022-08-22T10:39:54.934Z,25.53
2022-08-22T10:40:55.097Z,25.69
2022-08-22T10:41:55.201Z,25.74
2022-08-22T10:42:55.372Z,26.01
2022-08-22T10:44:00.497Z,26.21
2022-08-22T10:44:56.666Z,26.15
2022-08-22T10:45:56.547Z,26.32
2022-08-22T10:46:55.993Z,26.35
2022-08-22T10:47:56.171Z,26.24
2022-08-22T10:48:56.573Z,26.09
2022-08-22T10:49:57.044Z,26.11
2022-08-22T10:50:57.544Z,26.11
2022-08-22T10:51:56.849Z,26.39
2022-08-22T10:52:57.014Z,26.57
2022-08-22T10:53:57.571Z,26.80
2022-08-22T10:54:57.292Z,26.73
2022-08-22T10:55:57.455Z,26.89
2022-08-22T10:56:58.061Z,26.81
2022-08-22T10:57:57.776Z,26.94
2022-08-22T10:58:58.050Z,26.80
2022-08-22T11:00:31.595Z,27.09
2022-08-22T11:00:59.107Z,27.14
2022-08-22T11:01:58.860Z,27.10
2022-08-22T11:02:59.761Z,27.05
2022-08-22T11:03:59.598Z,26.92
2022-08-22T11:04:59.087Z,26.99
2022-08-22T11:06:00.088Z,26.84
2022-08-22T11:06:59.339Z,26.79
2022-08-22T11:08:00.083Z,26.87
2022-08-22T11:08:59.706Z,26.95
2022-08-22T11:09:59.922Z,27.11
2022-08-22T11:11:00.146Z,27.17
2022-08-22T11:12:00.295Z,27.06
2022-08-22T11:13:00.737Z,26.74
2022-08-22T11:14:00.618Z,26.52
2022-08-22T11:15:00.764Z,26.37
2022-08-22T11:16:00.997Z,26.31
2022-08-22T11:17:02.120Z,26.05
2022-08-22T11:18:02.355Z,26.20
2022-08-22T11:19:02.748Z,26.11
2022-08-22T11:20:01.619Z,26.11
2022-08-22T11:21:02.144Z,26.20
2022-08-22T11:22:01.934Z,26.28
2022-08-22T11:23:02.291Z,26.21
2022-08-22T11:24:03.277Z,26.09
2022-08-22T11:25:04.643Z,26.01
2022-08-22T11:26:05.094Z,26.01
2022-08-22T11:27:02.743Z,25.97
2022-08-22T11:28:02.989Z,25.91
2022-08-22T11:29:13.142Z,25.74
2022-08-22T11:30:44.075Z,25.82
2022-08-22T11:31:07.328Z,26.05
2022-08-22T11:32:06.117Z,26.37
2022-08-22T11:33:04.495Z,26.58
2022-08-22T11:34:04.629Z,26.58
2022-08-22T11:35:09.346Z,26.55
2022-08-22T11:36:04.577Z,26.42
2022-08-22T11:37:10.990Z,26.47
2022-08-22T11:38:06.628Z,26.32
2022-08-22T11:39:05.139Z,26.18
2022-08-22T11:40:05.697Z,26.02
2022-08-22T11:41:05.452Z,25.98
2022-08-22T11:42:06.136Z,25.97
2022-08-22T11:43:07.353Z,26.17
2022-08-22T11:44:07.631Z,26.12
2022-08-22T11:45:06.132Z,26.17
2022-08-22T11:46:06.635Z,26.18
2022-08-22T11:47:07.169Z,26.17
2022-08-22T11:48:06.505Z,26.25
2022-08-22T11:49:06.631Z,26.44
2022-08-22T11:50:13.369Z,26.76
2022-08-22T11:51:13.115Z,27.02
2022-08-22T11:52:08.483Z,27.26
2022-08-22T11:53:07.737Z,27.61
2022-08-22T11:54:07.609Z,27.80
2022-08-22T11:55:07.750Z,27.74
2022-08-22T11:56:07.914Z,27.57
2022-08-22T11:57:08.056Z,27.35
2022-08-22T11:58:08.241Z,27.32
2022-08-22T11:59:08.382Z,27.02
2022-08-22T12:00:08.514Z,26.86
2022-08-22T12:01:11.791Z,26.73
2022-08-22T12:02:11.072Z,26.62
2022-08-22T12:03:09.669Z,26.54
2022-08-22T12:04:10.190Z,26.59
2022-08-22T12:05:10.133Z,26.77
2022-08-22T12:06:09.854Z,27.14
2022-08-22T12:07:09.979Z,27.51
2022-08-22T12:08:10.212Z,27.73
2022-08-22T12:09:10.366Z,27.67
2022-08-22T12:10:13.768Z,27.67
2022-08-22T12:11:10.741Z,27.53
2022-08-22T12:12:11.638Z,27.46
2022-08-22T12:13:11.668Z,27.69
2022-08-22T12:14:11.163Z,27.80
2022-08-22T12:15:11.349Z,28.07
2022-08-22T12:16:11.494Z,28.16
2022-08-22T12:17:11.694Z,28.23
2022-08-22T12:18:15.327Z,28.17
2022-08-22T12:19:13.032Z,28.21
2022-08-22T12:20:16.071Z,28.19
2022-08-22T12:21:13.451Z,28.16
2022-08-22T12:22:12.560Z,28.04
2022-08-22T12:23:13.647Z,27.92
2022-08-22T12:24:20.858Z,27.80
2022-08-22T12:25:14.051Z,27.86
2022-08-22T12:26:14.141Z,27.86
2022-08-22T12:27:13.405Z,27.86
2022-08-22T12:28:14.556Z,27.76
2022-08-22T12:29:15.527Z,27.79
2022-08-22T12:30:14.389Z,27.70
2022-08-22T12:31:14.140Z,27.58
2022-08-22T12:32:49.058Z,27.43
2022-08-22T12:33:17.298Z,27.35
2022-08-22T12:34:16.198Z,27.23
2022-08-22T12:35:14.791Z,26.92
2022-08-22T12:36:18.374Z,26.67
2022-08-22T12:37:15.199Z,26.57
2022-08-22T12:38:29.228Z,26.55
2022-08-22T12:39:16.549Z,26.65
2022-08-22T12:40:15.831Z,26.59
2022-08-22T12:41:28.477Z,26.62
2022-08-22T12:42:17.172Z,26.58
2022-08-22T12:43:18.743Z,26.47
2022-08-22T12:44:17.285Z,26.44
2022-08-22T12:45:17.685Z,26.47
2022-08-22T12:46:16.925Z,26.37